Time;durP1;ratioP1;P1;durP2;ratioP2;P2;SDS_P1;SDS_P2;PMS_P1;PMS_P2;Temp;Humidity;BMP_temperature;BMP_pressure;BME280_temperature;BME280_humidity;BME280_pressure;Samples;Min_cycle;Max_cycle;Signal;HPM_P1;HPM_P2
2022/07/22 00:00:33;;;;;;;13.82;6.82;;;18.60;99.90;;;;;;4935925;29;20414;-88
2022/07/22 00:03:01;;;;;;;16.08;7.03;;;18.60;99.90;;;;;;4937750;29;20401;-87
2022/07/22 00:05:29;;;;;;;14.63;6.93;;;18.50;99.90;;;;;;4936780;29;20410;-87
2022/07/22 00:07:57;;;;;;;13.50;6.75;;;18.50;99.90;;;;;;4929408;29;20547;-85
2022/07/22 00:10:24;;;;;;;12.90;7.30;;;18.50;99.90;;;;;;4966448;28;20409;-89
2022/07/22 00:12:52;;;;;;;13.83;6.93;;;18.40;99.90;;;;;;4944721;29;20496;-84
2022/07/22 00:15:20;;;;;;;10.48;6.65;;;18.40;99.90;;;;;;4933161;28;20435;-86
2022/07/22 00:17:47;;;;;;;11.57;6.90;;;18.40;99.90;;;;;;4966726;28;20406;-87
2022/07/22 00:20:15;;;;;;;14.82;7.13;;;18.30;99.90;;;;;;4949893;29;20939;-85
2022/07/22 00:22:43;;;;;;;13.20;6.70;;;18.40;99.90;;;;;;4935479;29;20888;-84
2022/07/22 00:25:11;;;;;;;13.05;7.07;;;18.30;99.90;;;;;;4932948;29;20494;-84
2022/07/22 00:27:38;;;;;;;10.98;6.40;;;18.20;99.90;;;;;;4935112;29;20477;-86
2022/07/22 00:30:07;;;;;;;12.38;6.80;;;18.20;99.90;;;;;;4966846;28;20419;-88
2022/07/22 00:32:36;;;;;;;13.43;6.97;;;18.20;99.90;;;;;;4936063;29;20393;-87
2022/07/22 00:35:05;;;;;;;12.50;6.97;;;18.20;99.90;;;;;;4929353;29;20923;-87
2022/07/22 00:37:33;;;;;;;12.38;6.53;;;18.10;99.90;;;;;;4936505;29;20464;-87
2022/07/22 00:40:00;;;;;;;14.63;6.80;;;18.10;99.90;;;;;;4966218;28;20769;-85
2022/07/22 00:42:28;;;;;;;12.32;6.10;;;18.10;99.90;;;;;;4966082;28;20452;-86
2022/07/22 00:44:56;;;;;;;14.68;7.30;;;18.10;99.90;;;;;;4966323;28;20818;-86
2022/07/22 00:47:24;;;;;;;11.52;6.43;;;18.00;99.90;;;;;;4966419;28;20433;-87
2022/07/22 00:49:52;;;;;;;12.38;7.07;;;18.00;99.90;;;;;;4934042;29;20488;-85
2022/07/22 00:52:21;;;;;;;14.80;6.60;;;18.00;99.90;;;;;;4924633;29;20443;-86
2022/07/22 00:54:50;;;;;;;10.13;6.50;;;17.90;99.90;;;;;;4965627;28;20400;-87
2022/07/22 00:57:18;;;;;;;11.68;6.38;;;17.90;99.90;;;;;;4928420;29;21009;-84
2022/07/22 00:59:45;;;;;;;12.57;6.70;;;17.90;99.90;;;;;;4966115;28;20410;-87
2022/07/22 01:02:13;;;;;;;10.80;5.85;;;17.90;99.90;;;;;;4931794;29;20408;-85
2022/07/22 01:04:41;;;;;;;11.10;6.57;;;17.90;99.90;;;;;;4966028;28;20414;-85
2022/07/22 01:07:09;;;;;;;16.00;9.15;;;17.90;99.90;;;;;;4965466;28;20417;-83
2022/07/22 01:09:37;;;;;;;13.23;6.78;;;17.80;99.90;;;;;;4965931;28;20398;-82
2022/07/22 01:12:05;;;;;;;12.20;6.80;;;17.80;99.90;;;;;;4934356;29;20913;-82
2022/07/22 01:14:32;;;;;;;15.27;6.63;;;17.80;99.90;;;;;;4934764;29;20406;-82
2022/07/22 01:17:00;;;;;;;12.07;6.40;;;17.70;99.90;;;;;;4925974;29;20414;-81
2022/07/22 01:19:28;;;;;;;9.50;6.20;;;17.70;99.90;;;;;;4923352;29;20466;-82
2022/07/22 01:21:56;;;;;;;9.95;6.70;;;17.70;99.90;;;;;;4934218;29;20885;-81
2022/07/22 01:24:24;;;;;;;12.30;6.70;;;17.70;99.90;;;;;;4922633;29;20909;-81
2022/07/22 01:26:51;;;;;;;11.10;6.55;;;17.70;99.90;;;;;;4933511;29;20390;-81
2022/07/22 01:29:19;;;;;;;11.93;6.05;;;17.60;99.90;;;;;;4964533;28;20418;-81
2022/07/22 01:31:47;;;;;;;15.23;6.67;;;17.60;99.90;;;;;;4934037;29;20457;-82
2022/07/22 01:34:14;;;;;;;10.07;6.32;;;17.60;99.90;;;;;;4932366;29;20893;-82
2022/07/22 01:36:42;;;;;;;10.67;6.00;;;17.50;99.90;;;;;;4930040;29;20417;-81
2022/07/22 01:39:11;;;;;;;10.15;6.47;;;17.50;99.90;;;;;;4927121;29;20412;-81
2022/07/22 01:41:39;;;;;;;10.35;6.30;;;17.50;99.90;;;;;;4934372;29;20413;-82
2022/07/22 01:44:10;;;;;;;10.63;6.40;;;17.50;99.90;;;;;;4948078;28;20414;-81
2022/07/22 01:46:38;;;;;;;12.25;6.47;;;17.40;99.90;;;;;;4926857;29;20501;-82
2022/07/22 01:49:06;;;;;;;9.38;6.05;;;17.40;99.90;;;;;;4936381;29;20403;-80
2022/07/22 01:51:38;;;;;;;13.63;6.88;;;17.40;99.90;;;;;;4929188;29;20827;-81
2022/07/22 01:54:05;;;;;;;9.18;5.97;;;17.40;99.90;;;;;;4929425;29;20554;-81
2022/07/22 01:56:33;;;;;;;12.60;6.15;;;17.30;99.90;;;;;;4945918;28;20777;-82
2022/07/22 01:59:01;;;;;;;11.15;6.05;;;17.20;99.90;;;;;;4964487;28;20942;-81
2022/07/22 02:01:29;;;;;;;10.77;6.40;;;17.30;99.90;;;;;;4964895;28;20433;-83
2022/07/22 02:03:59;;;;;;;13.95;6.75;;;17.30;99.90;;;;;;4942399;28;20508;-82
2022/07/22 02:06:30;;;;;;;8.63;5.93;;;17.20;99.90;;;;;;4933569;29;20425;-82
2022/07/22 02:08:58;;;;;;;10.82;6.32;;;17.20;99.90;;;;;;4948061;28;20417;-81
2022/07/22 02:11:52;;;;;;;11.25;6.43;;;17.20;99.90;;;;;;4926941;29;21032;-82
2022/07/22 02:14:20;;;;;;;10.35;6.18;;;17.10;99.90;;;;;;4922283;29;20412;-82
2022/07/22 02:16:50;;;;;;;11.32;5.93;;;17.10;99.90;;;;;;4939893;29;20409;-82
2022/07/22 02:19:18;;;;;;;11.20;6.13;;;17.20;99.90;;;;;;4964475;28;20413;-83
2022/07/22 02:21:45;;;;;;;10.07;6.10;;;17.10;99.90;;;;;;4932419;29;20413;-82
2022/07/22 02:24:13;;;;;;;11.05;6.28;;;17.10;99.90;;;;;;4933494;29;20402;-81
2022/07/22 02:26:40;;;;;;;12.73;6.57;;;17.10;99.90;;;;;;4943466;28;20493;-82
2022/07/22 02:29:12;;;;;;;9.90;6.30;;;17.10;99.90;;;;;;4964285;28;20789;-82
2022/07/22 02:31:40;;;;;;;13.20;6.90;;;17.10;99.90;;;;;;4964275;28;20527;-82
2022/07/22 02:34:08;;;;;;;10.88;6.32;;;17.00;99.90;;;;;;4919613;29;20467;-81
2022/07/22 02:36:36;;;;;;;9.30;5.93;;;17.00;99.90;;;;;;4963546;28;20421;-82
2022/07/22 02:39:04;;;;;;;9.90;6.57;;;17.00;99.90;;;;;;4933459;29;20414;-82
2022/07/22 02:41:32;;;;;;;12.95;6.25;;;17.00;99.90;;;;;;4945181;28;20918;-82
2022/07/22 02:44:00;;;;;;;9.65;5.88;;;16.90;99.90;;;;;;4939883;29;20424;-82
2022/07/22 02:46:29;;;;;;;7.47;6.10;;;16.90;99.90;;;;;;4915237;29;20414;-82
2022/07/22 02:49:06;;;;;;;10.60;6.73;;;16.90;99.90;;;;;;4964395;28;20458;-81
2022/07/22 02:51:33;;;;;;;9.15;6.32;;;16.90;99.90;;;;;;4944859;28;20505;-81
2022/07/22 02:54:02;;;;;;;13.10;6.55;;;16.90;99.90;;;;;;4925331;29;20920;-82
2022/07/22 02:56:29;;;;;;;9.93;6.55;;;16.90;99.90;;;;;;4921847;29;20921;-82
2022/07/22 02:58:57;;;;;;;10.65;6.25;;;16.90;99.90;;;;;;4947942;28;20476;-82
2022/07/22 03:01:25;;;;;;;10.75;5.88;;;16.90;99.90;;;;;;4936660;29;20414;-81
2022/07/22 03:03:57;;;;;;;8.95;5.80;;;16.90;99.90;;;;;;4942020;28;20406;-83
2022/07/22 03:06:26;;;;;;;8.83;6.10;;;16.90;99.90;;;;;;4950949;29;20457;-82
2022/07/22 03:09:10;;;;;;;11.05;5.80;;;16.90;99.90;;;;;;4932532;29;20407;-82
2022/07/22 03:11:42;;;;;;;13.00;5.88;;;16.90;99.90;;;;;;4926684;29;20454;-82
2022/07/22 03:14:11;;;;;;;9.65;5.43;;;16.90;99.90;;;;;;4963186;28;20437;-82
2022/07/22 03:16:39;;;;;;;11.70;5.50;;;16.90;99.90;;;;;;4929576;29;20420;-82
2022/07/22 03:19:07;;;;;;;12.25;5.70;;;16.90;99.90;;;;;;4967217;28;20523;-81
2022/07/22 03:21:35;;;;;;;9.93;5.50;;;17.00;99.90;;;;;;4966272;28;20421;-81
2022/07/22 03:24:03;;;;;;;8.77;5.70;;;17.00;99.90;;;;;;4967306;28;20425;-82
2022/07/22 03:26:31;;;;;;;9.03;5.50;;;17.00;99.90;;;;;;4966892;28;20510;-82
2022/07/22 03:28:59;;;;;;;10.32;6.07;;;16.90;99.90;;;;;;4950666;28;20413;-81
2022/07/22 03:31:28;;;;;;;10.30;5.43;;;16.90;99.90;;;;;;4925281;29;20413;-82
2022/07/22 03:33:57;;;;;;;7.45;5.20;;;16.90;99.90;;;;;;4966861;28;20445;-82
2022/07/22 03:36:28;;;;;;;10.50;5.32;;;17.00;99.90;;;;;;4963287;28;20445;-82
2022/07/22 03:38:57;;;;;;;11.70;5.78;;;16.90;99.90;;;;;;4934320;29;20773;-82
2022/07/22 03:41:25;;;;;;;9.02;5.40;;;17.00;99.90;;;;;;4924440;29;20405;-81
2022/07/22 03:43:53;;;;;;;11.85;5.97;;;17.00;99.90;;;;;;4967018;28;20409;-82
2022/07/22 03:46:20;;;;;;;13.35;5.57;;;17.00;99.90;;;;;;4928926;29;20419;-82
2022/07/22 03:48:49;;;;;;;11.63;5.43;;;17.10;99.90;;;;;;4939296;29;20403;-82
2022/07/22 03:51:18;;;;;;;8.20;4.73;;;17.10;99.90;;;;;;4968432;28;20780;-82
2022/07/22 03:53:46;;;;;;;9.10;5.00;;;17.20;99.90;;;;;;4966463;28;20417;-82
2022/07/22 03:56:13;;;;;;;11.60;5.03;;;17.20;99.90;;;;;;4950193;28;20492;-82
2022/07/22 03:58:41;;;;;;;8.77;5.07;;;17.20;99.90;;;;;;4929375;29;20422;-82
2022/07/22 04:01:09;;;;;;;12.23;4.97;;;17.20;99.90;;;;;;4925680;29;20445;-83
2022/07/22 04:03:40;;;;;;;7.30;4.78;;;17.20;99.90;;;;;;4934874;29;20426;-82
2022/07/22 04:06:40;;;;;;;6.70;3.88;;;17.20;99.90;;;;;;4934207;29;20418;-83
2022/07/22 04:09:16;;;;;;;8.32;5.10;;;17.20;99.90;;;;;;4942860;28;20485;-82
2022/07/22 04:11:44;;;;;;;9.10;4.93;;;17.30;99.90;;;;;;4964182;28;20421;-83
2022/07/22 04:14:12;;;;;;;6.10;4.50;;;17.30;99.90;;;;;;4966003;28;20481;-82
2022/07/22 04:16:40;;;;;;;7.50;4.53;;;17.30;99.90;;;;;;4966846;28;20477;-82
2022/07/22 04:19:09;;;;;;;6.90;4.35;;;17.30;99.90;;;;;;4935955;29;20418;-81
2022/07/22 04:21:48;;;;;;;7.00;4.70;;;17.30;99.90;;;;;;4933872;29;20428;-81
2022/07/22 04:24:18;;;;;;;8.15;4.50;;;17.30;99.90;;;;;;4965859;28;20429;-82
2022/07/22 04:26:46;;;;;;;7.30;4.25;;;17.40;99.90;;;;;;4940975;28;20493;-82
2022/07/22 04:29:14;;;;;;;6.72;3.85;;;17.40;99.90;;;;;;4935225;29;20944;-81
2022/07/22 04:31:42;;;;;;;5.32;3.80;;;17.40;99.90;;;;;;4935381;29;20481;-81
2022/07/22 04:34:13;;;;;;;9.50;4.32;;;17.40;99.90;;;;;;4939684;28;20417;-82
2022/07/22 04:36:41;;;;;;;7.07;3.92;;;17.50;99.90;;;;;;4968843;28;20419;-82
2022/07/22 04:39:09;;;;;;;5.18;3.40;;;17.50;99.90;;;;;;4943548;28;20409;-81
2022/07/22 04:41:41;;;;;;;5.70;4.10;;;17.50;99.90;;;;;;4940068;28;20782;-82
2022/07/22 04:44:10;;;;;;;5.70;3.88;;;17.50;99.90;;;;;;4914585;29;20497;-82
2022/07/22 04:46:37;;;;;;;7.50;3.60;;;17.50;99.90;;;;;;4962838;28;20916;-83
2022/07/22 04:49:05;;;;;;;6.03;3.60;;;17.60;99.90;;;;;;4948535;28;20939;-83
2022/07/22 04:51:34;;;;;;;4.90;3.30;;;17.60;99.90;;;;;;4946632;28;20774;-82
2022/07/22 04:54:05;;;;;;;6.07;3.70;;;17.60;99.90;;;;;;4942928;28;20420;-83
2022/07/22 04:56:38;;;;;;;5.15;3.05;;;17.60;99.90;;;;;;4941758;28;20419;-82
2022/07/22 04:59:06;;;;;;;4.93;3.40;;;17.70;99.90;;;;;;4927043;29;20473;-83
2022/07/22 05:01:35;;;;;;;4.68;2.90;;;17.70;99.90;;;;;;4944787;28;20514;-82
2022/07/22 05:04:05;;;;;;;5.78;3.50;;;17.80;99.90;;;;;;4965583;28;20425;-85
2022/07/22 05:06:33;;;;;;;4.28;3.10;;;17.80;99.90;;;;;;4933104;29;20453;-83
2022/07/22 05:09:03;;;;;;;4.28;3.10;;;17.90;99.90;;;;;;4924066;29;20455;-82
2022/07/22 05:11:31;;;;;;;4.22;3.22;;;17.80;99.90;;;;;;4963179;28;20901;-82
2022/07/22 05:13:59;;;;;;;6.68;3.20;;;17.90;99.90;;;;;;4925014;29;20908;-83
2022/07/22 05:16:27;;;;;;;5.00;3.50;;;17.90;99.90;;;;;;4930129;29;20414;-84
2022/07/22 05:18:55;;;;;;;9.10;4.05;;;18.00;99.90;;;;;;4963035;28;20424;-83
2022/07/22 05:21:23;;;;;;;9.73;4.10;;;18.10;99.90;;;;;;4938361;29;20396;-86
2022/07/22 05:23:51;;;;;;;13.43;4.20;;;18.20;99.90;;;;;;4946442;28;20415;-88
2022/07/22 05:26:18;;;;;;;6.68;3.47;;;18.20;99.90;;;;;;4964594;28;20432;-84
2022/07/22 05:28:46;;;;;;;7.45;3.38;;;18.30;99.90;;;;;;4962803;28;20417;-83
2022/07/22 05:31:14;;;;;;;8.27;4.07;;;18.30;99.90;;;;;;4931042;29;20474;-84
2022/07/22 05:33:42;;;;;;;9.23;3.60;;;18.40;99.90;;;;;;4946606;28;20470;-84
2022/07/22 05:36:28;;;;;;;9.00;3.42;;;18.40;99.90;;;;;;4958374;28;20922;-83
2022/07/22 05:38:57;;;;;;;8.77;3.88;;;18.40;99.90;;;;;;4946664;28;20753;-83
2022/07/22 05:41:25;;;;;;;6.73;3.83;;;18.40;99.90;;;;;;4936150;28;20420;-83
2022/07/22 05:43:53;;;;;;;7.75;3.92;;;18.50;99.90;;;;;;4964216;28;20822;-83
2022/07/22 05:46:20;;;;;;;9.57;4.20;;;18.60;99.90;;;;;;4963616;28;20416;-84
2022/07/22 05:48:48;;;;;;;7.28;4.10;;;18.80;99.90;;;;;;4922260;29;20421;-83
2022/07/22 05:51:16;;;;;;;7.47;4.05;;;18.90;99.90;;;;;;4963973;28;20809;-84
2022/07/22 05:53:44;;;;;;;6.67;4.50;;;19.10;99.90;;;;;;4964578;28;20409;-83
2022/07/22 05:56:12;;;;;;;9.02;4.72;;;19.00;99.90;;;;;;4963526;28;20511;-83
2022/07/22 05:58:42;;;;;;;10.40;5.25;;;19.00;99.90;;;;;;4933447;29;20476;-83
2022/07/22 06:01:12;;;;;;;8.73;5.13;;;19.00;99.90;;;;;;4924179;29;20919;-83
2022/07/22 06:03:41;;;;;;;7.35;4.13;;;19.20;99.90;;;;;;4931036;29;20452;-83
2022/07/22 06:06:11;;;;;;;6.32;4.13;;;19.30;99.90;;;;;;4961933;28;20852;-83
2022/07/22 06:08:40;;;;;;;5.55;4.00;;;19.50;99.90;;;;;;4964146;28;20398;-83
2022/07/22 06:11:07;;;;;;;7.00;4.30;;;19.70;99.90;;;;;;4948093;28;20916;-83
2022/07/22 06:13:35;;;;;;;5.95;4.18;;;19.80;99.90;;;;;;4964649;28;20516;-83
2022/07/22 06:16:03;;;;;;;4.32;3.83;;;19.80;99.90;;;;;;4942605;29;20417;-84
2022/07/22 06:18:31;;;;;;;4.90;3.65;;;19.80;99.90;;;;;;4955141;28;20517;-82
2022/07/22 06:20:59;;;;;;;4.83;4.00;;;19.80;99.90;;;;;;4922628;29;20447;-83
2022/07/22 06:23:27;;;;;;;5.68;3.75;;;19.80;99.90;;;;;;4964314;28;20417;-84
2022/07/22 06:25:54;;;;;;;5.20;3.83;;;19.90;99.90;;;;;;4965409;28;20418;-83
2022/07/22 06:28:30;;;;;;;11.13;4.75;;;19.90;99.90;;;;;;4935925;29;20422;-83
2022/07/22 06:30:57;;;;;;;5.68;4.20;;;20.00;99.90;;;;;;4967902;28;20458;-83
2022/07/22 06:33:27;;;;;;;6.30;4.50;;;20.30;99.90;;;;;;4968046;28;20897;-83
2022/07/22 06:35:56;;;;;;;7.43;4.40;;;20.10;99.90;;;;;;4967828;28;20944;-84
2022/07/22 06:38:26;;;;;;;6.67;4.50;;;20.00;99.90;;;;;;4967939;28;20417;-83
2022/07/22 06:41:19;;;;;;;10.60;5.07;;;20.00;99.90;;;;;;4937700;29;20446;-83
2022/07/22 06:44:03;;;;;;;9.18;5.07;;;20.20;99.90;;;;;;4936459;29;20525;-83
2022/07/22 06:46:42;;;;;;;8.60;5.43;;;20.20;99.90;;;;;;4911528;29;20506;-84
2022/07/22 06:49:10;;;;;;;8.00;5.00;;;20.40;99.90;;;;;;4935665;29;20431;-84
2022/07/22 06:51:41;;;;;;;9.70;4.43;;;20.40;99.90;;;;;;4951300;28;20413;-84
2022/07/22 06:54:08;;;;;;;7.13;3.78;;;20.70;99.90;;;;;;4935617;29;20781;-83
2022/07/22 06:56:36;;;;;;;7.18;4.28;;;20.70;99.90;;;;;;4931799;29;20499;-84
2022/07/22 06:59:05;;;;;;;8.48;4.90;;;20.80;99.90;;;;;;4968895;28;20421;-82
2022/07/22 07:01:33;;;;;;;8.32;5.20;;;20.80;99.90;;;;;;4948176;29;20414;-84
2022/07/22 07:04:02;;;;;;;7.80;5.43;;;20.70;99.90;;;;;;4973111;28;20892;-83
2022/07/22 07:06:30;;;;;;;10.00;5.80;;;21.00;99.90;;;;;;4945970;29;20453;-83
2022/07/22 07:09:11;;;;;;;9.63;6.00;;;20.90;99.90;;;;;;4965478;28;20824;-84
2022/07/22 07:11:41;;;;;;;10.18;5.78;;;21.10;99.90;;;;;;4967535;28;20412;-83
2022/07/22 07:14:22;;;;;;;7.72;5.40;;;21.00;99.90;;;;;;4967202;28;20515;-83
2022/07/22 07:16:49;;;;;;;8.50;5.32;;;21.00;99.90;;;;;;4935904;29;20425;-83
2022/07/22 07:19:19;;;;;;;6.82;3.67;;;21.10;99.90;;;;;;4956112;28;21035;-83
2022/07/22 07:21:47;;;;;;;5.60;3.40;;;21.10;99.90;;;;;;4974534;28;20486;-83
2022/07/22 07:24:17;;;;;;;4.88;3.30;;;21.20;99.90;;;;;;4965154;28;20409;-83
2022/07/22 07:26:45;;;;;;;5.50;3.45;;;21.30;99.90;;;;;;4965929;28;20504;-83
2022/07/22 07:29:13;;;;;;;4.60;3.25;;;21.20;99.90;;;;;;4922654;29;20477;-83
2022/07/22 07:31:41;;;;;;;6.45;3.38;;;21.30;99.90;;;;;;4949372;28;20494;-83
2022/07/22 07:34:13;;;;;;;4.80;3.75;;;21.40;99.90;;;;;;4937820;29;20426;-83
2022/07/22 07:36:41;;;;;;;6.63;3.50;;;21.30;99.90;;;;;;4930691;29;20854;-83
2022/07/22 07:39:11;;;;;;;5.45;3.28;;;21.40;99.90;;;;;;4960040;28;20417;-84
2022/07/22 07:41:39;;;;;;;9.77;3.70;;;21.50;99.90;;;;;;4950848;28;20433;-83
2022/07/22 07:44:08;;;;;;;6.38;3.38;;;21.50;99.90;;;;;;4942870;28;20498;-83
2022/07/22 07:46:37;;;;;;;7.97;3.40;;;21.70;99.90;;;;;;4966323;28;20418;-83
2022/07/22 07:49:05;;;;;;;5.60;3.13;;;21.70;99.90;;;;;;4967119;28;20449;-82
2022/07/22 07:51:33;;;;;;;7.22;3.35;;;21.70;99.90;;;;;;4966549;28;20414;-83
2022/07/22 07:54:01;;;;;;;4.85;3.42;;;21.70;99.90;;;;;;4949946;28;20897;-85
2022/07/22 07:56:29;;;;;;;5.85;2.80;;;21.90;99.90;;;;;;4947065;28;20534;-83
2022/07/22 07:58:56;;;;;;;5.53;2.75;;;22.00;99.90;;;;;;4927529;29;20893;-84
2022/07/22 08:01:45;;;;;;;4.20;3.15;;;21.90;99.90;;;;;;4945659;28;20501;-83
2022/07/22 08:04:26;;;;;;;3.60;2.90;;;21.70;99.90;;;;;;4943580;29;20766;-83
2022/07/22 08:07:12;;;;;;;5.63;3.35;;;21.70;99.90;;;;;;4962321;28;20417;-83
2022/07/22 08:09:42;;;;;;;5.68;3.50;;;21.90;99.90;;;;;;4946953;29;20399;-84
2022/07/22 08:12:35;;;;;;;6.30;3.42;;;21.90;99.90;;;;;;4937736;28;20413;-83
2022/07/22 08:15:17;;;;;;;5.68;3.75;;;22.10;99.90;;;;;;4947818;28;20465;-83
2022/07/22 08:17:50;;;;;;;5.28;3.42;;;22.10;99.90;;;;;;4966038;28;20935;-84
2022/07/22 08:20:18;;;;;;;7.85;3.85;;;22.40;99.90;;;;;;4935442;29;20833;-83
2022/07/22 08:22:50;;;;;;;5.67;3.63;;;22.50;99.90;;;;;;4939893;29;20496;-83
2022/07/22 08:25:18;;;;;;;6.38;3.72;;;22.30;99.90;;;;;;4947439;28;20414;-83
2022/07/22 08:27:47;;;;;;;6.80;3.80;;;22.50;99.90;;;;;;4940658;29;21002;-84
2022/07/22 08:30:16;;;;;;;4.93;3.38;;;22.50;99.90;;;;;;4946593;29;20775;-83
2022/07/22 08:32:43;;;;;;;5.28;3.30;;;22.70;99.90;;;;;;4933635;29;20417;-84
2022/07/22 08:35:11;;;;;;;7.70;3.67;;;22.60;99.90;;;;;;4928342;29;20832;-84
2022/07/22 08:37:39;;;;;;;5.30;3.70;;;22.70;99.90;;;;;;4922883;29;20449;-84
2022/07/22 08:40:09;;;;;;;6.30;4.00;;;22.70;99.90;;;;;;4923571;29;20951;-83
2022/07/22 08:42:39;;;;;;;5.00;3.30;;;22.80;99.90;;;;;;4965570;28;20414;-83
2022/07/22 08:45:08;;;;;;;8.15;3.83;;;22.80;99.90;;;;;;4931007;29;20415;-83
2022/07/22 08:47:46;;;;;;;5.63;3.70;;;23.00;99.90;;;;;;4947894;28;20406;-84
2022/07/22 08:50:21;;;;;;;6.28;4.00;;;23.00;99.90;;;;;;4964409;28;20505;-83
2022/07/22 08:52:55;;;;;;;5.72;3.42;;;23.10;99.90;;;;;;4933339;29;20468;-83
2022/07/22 08:55:25;;;;;;;6.90;4.18;;;23.00;99.90;;;;;;4965724;28;20449;-84
2022/07/22 08:57:52;;;;;;;6.88;3.65;;;23.00;99.90;;;;;;4934531;29;20394;-83
2022/07/22 09:00:22;;;;;;;4.53;3.60;;;23.10;99.90;;;;;;4965159;28;20418;-84
2022/07/22 09:02:50;;;;;;;7.45;4.43;;;23.10;99.90;;;;;;4927694;29;20421;-84
2022/07/22 09:05:19;;;;;;;5.88;3.95;;;23.30;99.90;;;;;;4965114;28;20417;-84
2022/07/22 09:08:07;;;;;;;6.32;4.57;;;23.20;99.90;;;;;;4937357;28;20469;-84
2022/07/22 09:11:18;;;;;;;6.53;4.80;;;23.50;99.90;;;;;;4934507;29;20418;-84
2022/07/22 09:14:10;;;;;;;7.90;4.63;;;23.50;99.90;;;;;;4930327;28;20422;-84
2022/07/22 09:16:54;;;;;;;7.67;5.30;;;23.50;99.90;;;;;;4964889;28;20470;-84
2022/07/22 09:19:33;;;;;;;8.43;4.80;;;23.70;99.90;;;;;;4964791;28;20435;-84
2022/07/22 09:22:42;;;;;;;8.18;5.05;;;23.70;99.90;;;;;;4922270;29;20423;-84
2022/07/22 09:25:22;;;;;;;8.65;5.13;;;23.70;99.90;;;;;;4913574;29;20411;-84
2022/07/22 09:28:28;;;;;;;10.38;5.68;;;23.70;99.90;;;;;;4906955;29;20722;-84
2022/07/22 09:31:32;;;;;;;8.05;5.35;;;23.60;99.90;;;;;;4933029;29;20408;-84
2022/07/22 09:34:30;;;;;;;8.15;5.40;;;23.80;99.90;;;;;;4935275;29;20896;-84
2022/07/22 09:37:05;;;;;;;7.68;5.07;;;23.90;99.90;;;;;;4932870;29;20413;-83
2022/07/22 09:39:33;;;;;;;7.32;4.88;;;23.90;99.90;;;;;;4947691;29;20427;-84
2022/07/22 09:42:08;;;;;;;6.50;4.80;;;24.10;99.90;;;;;;4948691;28;20432;-83
2022/07/22 09:44:35;;;;;;;6.30;5.10;;;24.10;99.90;;;;;;4964468;28;20417;-83
2022/07/22 09:47:29;;;;;;;8.77;5.13;;;24.10;99.90;;;;;;4928925;29;20744;-84
2022/07/22 09:50:33;;;;;;;8.13;5.25;;;24.20;99.90;;;;;;4946836;28;20413;-83
2022/07/22 09:53:24;;;;;;;7.03;4.70;;;24.30;99.90;;;;;;4923941;29;20951;-83
2022/07/22 09:56:02;;;;;;;7.30;4.88;;;24.30;99.90;;;;;;4949420;28;20512;-83
2022/07/22 09:58:31;;;;;;;8.23;4.90;;;24.30;99.90;;;;;;4928731;29;20417;-84
2022/07/22 10:01:06;;;;;;;7.57;5.13;;;24.40;99.90;;;;;;4946998;28;20772;-84
2022/07/22 10:03:39;;;;;;;8.45;5.18;;;24.60;99.90;;;;;;4938767;28;20418;-84
2022/07/22 10:06:10;;;;;;;6.60;4.68;;;24.50;99.90;;;;;;4932154;29;20417;-83
2022/07/22 10:08:38;;;;;;;8.97;5.00;;;24.50;99.90;;;;;;4922380;29;20416;-84
2022/07/22 10:11:07;;;;;;;7.82;5.20;;;24.60;99.90;;;;;;4971879;28;20406;-83
2022/07/22 10:13:38;;;;;;;10.60;5.45;;;24.60;99.90;;;;;;4939293;29;20930;-84
2022/07/22 10:16:07;;;;;;;8.67;5.13;;;24.70;99.90;;;;;;4940359;29;20465;-84
2022/07/22 10:18:37;;;;;;;8.68;5.07;;;24.70;99.90;;;;;;4928537;28;20914;-84
2022/07/22 10:21:08;;;;;;;7.97;5.30;;;24.80;99.90;;;;;;4932817;29;20509;-84
2022/07/22 10:23:36;;;;;;;7.15;4.80;;;24.90;99.90;;;;;;4932242;29;20913;-84
2022/07/22 10:26:05;;;;;;;7.25;4.63;;;24.90;99.90;;;;;;4948268;28;20414;-84
2022/07/22 10:28:35;;;;;;;7.72;4.75;;;24.90;99.90;;;;;;4944988;29;20419;-84
2022/07/22 10:31:17;;;;;;;6.28;4.60;;;24.90;99.90;;;;;;4930530;29;20521;-84
2022/07/22 10:33:49;;;;;;;6.90;5.10;;;24.90;99.90;;;;;;4926519;29;20436;-84
2022/07/22 10:36:31;;;;;;;7.57;5.13;;;25.10;99.90;;;;;;4964108;28;20414;-85
2022/07/22 10:39:06;;;;;;;7.75;5.28;;;25.10;99.90;;;;;;4930028;29;20405;-84
2022/07/22 10:41:42;;;;;;;8.38;5.10;;;25.10;99.90;;;;;;4963955;28;20441;-84
2022/07/22 10:44:13;;;;;;;6.50;5.07;;;25.30;99.90;;;;;;4932731;28;20979;-83
2022/07/22 10:47:02;;;;;;;6.10;4.65;;;25.30;99.90;;;;;;4933349;29;20497;-84
2022/07/22 10:49:30;;;;;;;5.30;4.60;;;25.30;99.90;;;;;;4950897;28;20461;-84
2022/07/22 10:52:07;;;;;;;5.70;4.90;;;25.30;99.90;;;;;;4933164;29;20410;-84
2022/07/22 10:55:17;;;;;;;7.50;4.95;;;25.40;99.90;;;;;;4933075;29;20438;-84
2022/07/22 10:57:45;;;;;;;7.90;4.90;;;25.40;99.90;;;;;;4942014;29;20425;-84
2022/07/22 11:00:13;;;;;;;8.30;4.85;;;25.50;99.90;;;;;;4932799;29;20402;-84
2022/07/22 11:02:43;;;;;;;7.90;5.10;;;25.60;99.90;;;;;;4959059;28;21942;-84
2022/07/22 11:05:11;;;;;;;9.80;5.40;;;25.60;99.90;;;;;;4963669;28;20800;-85
2022/07/22 11:07:46;;;;;;;13.48;5.80;;;25.50;99.90;;;;;;4949513;28;20426;-85
2022/07/22 11:10:18;;;;;;;7.50;4.90;;;25.60;99.90;;;;;;4933014;29;20421;-83
2022/07/22 11:12:49;;;;;;;7.57;5.20;;;25.70;99.90;;;;;;4962232;28;20448;-84
2022/07/22 11:15:18;;;;;;;8.55;5.00;;;25.90;99.90;;;;;;4948478;29;20499;-84
2022/07/22 11:17:45;;;;;;;7.38;5.32;;;26.00;99.90;;;;;;4969255;28;20781;-84
2022/07/22 11:20:13;;;;;;;8.55;4.90;;;26.00;99.90;;;;;;4934889;29;20437;-84
2022/07/22 11:22:46;;;;;;;9.57;4.90;;;26.10;99.90;;;;;;4935237;29;20422;-84
2022/07/22 11:25:15;;;;;;;8.15;5.20;;;26.10;99.90;;;;;;4942166;28;20418;-84
2022/07/22 11:27:52;;;;;;;6.70;4.50;;;26.00;99.90;;;;;;4934188;29;20409;-83
2022/07/22 11:30:20;;;;;;;7.70;5.27;;;26.10;99.90;;;;;;4936618;29;20409;-84
2022/07/22 11:32:48;;;;;;;9.40;5.30;;;26.20;99.90;;;;;;4935974;29;20402;-83
2022/07/22 11:35:17;;;;;;;8.02;5.20;;;26.40;99.90;;;;;;4923188;29;20929;-84
2022/07/22 11:37:55;;;;;;;7.72;4.80;;;26.50;99.90;;;;;;4968458;28;20869;-84
2022/07/22 11:40:23;;;;;;;6.60;5.07;;;26.50;99.90;;;;;;4932349;29;20489;-84
2022/07/22 11:43:04;;;;;;;6.88;4.90;;;26.40;99.90;;;;;;4935920;29;20402;-84
2022/07/22 11:45:32;;;;;;;6.80;5.10;;;26.50;99.90;;;;;;4966500;28;20445;-83
2022/07/22 11:48:08;;;;;;;5.20;4.68;;;26.50;99.90;;;;;;4936073;29;20417;-84
2022/07/22 11:50:36;;;;;;;8.32;4.80;;;26.50;99.90;;;;;;4934643;29;20410;-84
2022/07/22 11:53:05;;;;;;;6.37;5.07;;;26.70;99.90;;;;;;4933089;29;20437;-84
2022/07/22 11:55:34;;;;;;;7.63;5.68;;;26.80;99.90;;;;;;4931646;29;20901;-84
2022/07/22 11:58:01;;;;;;;7.65;5.25;;;26.80;99.90;;;;;;4930723;29;20506;-84
2022/07/22 12:00:30;;;;;;;9.48;5.43;;;26.90;99.90;;;;;;4942632;28;20913;-85
2022/07/22 12:02:58;;;;;;;11.73;6.28;;;27.00;99.90;;;;;;4966027;28;20504;-85
2022/07/22 12:05:27;;;;;;;8.15;5.35;;;27.20;99.90;;;;;;4928781;29;20413;-84
2022/07/22 12:07:59;;;;;;;8.45;5.63;;;27.10;99.90;;;;;;4935367;29;20414;-84
2022/07/22 12:10:27;;;;;;;9.98;5.55;;;27.10;99.90;;;;;;4935703;29;20410;-83
2022/07/22 12:12:55;;;;;;;8.90;5.60;;;27.10;99.90;;;;;;4935753;29;20406;-84
2022/07/22 12:15:23;;;;;;;7.78;5.90;;;27.10;99.90;;;;;;4966496;28;20741;-85
2022/07/22 12:18:21;;;;;;;8.73;5.70;;;27.10;99.90;;;;;;4964843;28;20433;-84
2022/07/22 12:20:50;;;;;;;6.75;5.78;;;27.20;99.90;;;;;;4924518;29;20497;-84
2022/07/22 12:23:22;;;;;;;8.75;5.57;;;27.00;99.90;;;;;;4964234;28;20445;-84
2022/07/22 12:25:59;;;;;;;9.32;6.30;;;27.20;99.90;;;;;;4935087;29;20401;-84
2022/07/22 12:28:27;;;;;;;8.07;5.65;;;27.30;99.90;;;;;;4935044;29;20476;-85
2022/07/22 12:30:56;;;;;;;8.98;5.88;;;27.30;99.90;;;;;;4965387;28;20824;-85
2022/07/22 12:33:24;;;;;;;9.25;5.57;;;27.30;99.90;;;;;;4965549;28;20537;-84
2022/07/22 12:36:01;;;;;;;8.55;5.72;;;27.20;99.90;;;;;;4933104;29;20416;-84
2022/07/22 12:38:29;;;;;;;8.75;6.13;;;27.10;99.90;;;;;;4965599;28;20413;-85
2022/07/22 12:41:30;;;;;;;9.25;5.90;;;27.20;99.90;;;;;;4931898;29;20416;-85
2022/07/22 12:43:58;;;;;;;10.77;6.53;;;27.50;99.90;;;;;;4935009;29;20413;-84
2022/07/22 12:46:29;;;;;;;7.32;5.97;;;27.60;99.90;;;;;;4934570;29;20500;-84
2022/07/22 12:49:00;;;;;;;10.30;6.03;;;27.70;99.90;;;;;;4938963;28;20501;-84
2022/07/22 12:51:28;;;;;;;8.88;6.22;;;27.60;99.90;;;;;;4953892;28;20462;-85
2022/07/22 12:53:58;;;;;;;10.43;6.13;;;27.60;99.90;;;;;;4934479;29;20889;-84
2022/07/22 12:56:27;;;;;;;10.63;6.45;;;27.70;99.90;;;;;;4965078;28;20821;-85
2022/07/22 12:59:02;;;;;;;12.38;6.20;;;27.80;99.90;;;;;;4934966;29;20501;-85
2022/07/22 13:01:30;;;;;;;7.38;6.15;;;28.10;99.90;;;;;;4964540;28;20466;-84
2022/07/22 13:03:58;;;;;;;7.82;5.88;;;28.00;99.90;;;;;;4933839;29;20405;-84